Terminal Aerodrome Forecast
Issued by NWS

Home | Current Version | Previous Version | Text Only | Print | Product List | Glossary On
Versions: 1 2 3 4 5 6 7 8 9 10 11 12
647
FTUS43 KIND 261731
TAFHUF
TAF
KHUF 261731Z 2618/2718 21012G20KT P6SM BKN025
     FM261900 21012G22KT P6SM VCSH OVC025
     FM262000 22012G21KT P6SM OVC035
     FM262300 23009KT P6SM BKN040
     FM270200 23005KT P6SM BKN050
     FM270500 21004KT P6SM SCT070
     FM270900 VRB03KT P6SM BKN070
     FM271200 15004KT 5SM BR BKN070=

USA.gov is the U.S. government's official web portal to all federal, state and local government web resources and services.